Time,TemperatureF,DewpointF,PressureIn,WindDirection,WindDirectionDegrees,WindSpeedMPH,WindSpeedGustMPH,Humidity,HourlyPrecipIn,Conditions,Clouds,dailyrainin,SoftwareType,DateUTC
2013-11-19 00:04:00,24.5,18.3,30.25,West,280,0.0,3.0,77,0.00,,---,0.00,VWS V14.01,2013-11-19 06:04:00,
2013-11-19 00:09:00,24.5,18.3,30.25,NNW,338,1.0,4.0,77,0.00,,---,0.00,VWS V14.01,2013-11-19 06:09:00,
2013-11-19 00:14:00,24.5,18.3,30.25,WSW,250,0.0,4.0,77,0.00,,---,0.00,VWS V14.01,2013-11-19 06:14:00,
2013-11-19 00:19:00,24.4,18.2,30.25,WNW,302,0.0,4.0,77,0.00,,---,0.00,VWS V14.01,2013-11-19 06:19:00,
2013-11-19 00:25:00,24.4,18.2,30.25,West,275,0.0,4.0,77,0.00,,---,0.00,VWS V14.01,2013-11-19 06:25:00,
2013-11-19 00:30:00,24.3,18.4,30.25,WSW,254,0.0,4.0,78,0.00,,---,0.00,VWS V14.01,2013-11-19 06:30:00,
2013-11-19 00:35:00,24.3,18.4,30.26,West,280,3.0,3.0,78,0.00,,---,0.00,VWS V14.01,2013-11-19 06:35:00,
2013-11-19 00:40:00,24.2,18.3,30.26,West,281,1.0,3.0,78,0.00,,---,0.00,VWS V14.01,2013-11-19 06:40:00,
2013-11-19 00:45:00,24.0,18.1,30.26,West,272,0.0,3.0,78,0.00,,---,0.00,VWS V14.01,2013-11-19 06:45:00,
2013-11-19 00:50:00,23.9,18.4,30.26,West,273,2.0,4.0,79,0.00,,---,0.00,VWS V14.01,2013-11-19 06:50:00,
2013-11-19 00:55:00,23.8,18.2,30.26,West,279,0.0,4.0,79,0.00,,---,0.00,VWS V14.01,2013-11-19 06:55:00,
2013-11-19 01:00:00,23.7,18.1,30.26,WNW,282,0.0,5.0,79,0.00,,---,0.00,VWS V14.01,2013-11-19 07:00:00,
2013-11-19 01:05:00,23.5,18.0,30.26,WSW,254,1.0,2.0,79,0.00,,---,0.00,VWS V14.01,2013-11-19 07:05:00,
2013-11-19 01:10:00,23.3,18.1,30.26,West,278,0.0,2.0,80,0.00,,---,0.00,VWS V14.01,2013-11-19 07:10:00,
2013-11-19 01:15:00,23.0,18.0,30.27,West,267,0.0,2.0,81,0.00,,---,0.00,VWS V14.01,2013-11-19 07:15:00,
2013-11-19 01:20:00,22.7,18.0,30.27,West,261,0.0,2.0,82,0.00,,---,0.00,VWS V14.01,2013-11-19 07:20:00,
2013-11-19 01:25:00,22.5,17.9,30.27,West,263,0.0,2.0,82,0.00,,---,0.00,VWS V14.01,2013-11-19 07:25:00,
2013-11-19 01:30:00,22.2,17.8,30.27,West,261,0.0,2.0,83,0.00,,---,0.00,VWS V14.01,2013-11-19 07:30:00,
2013-11-19 01:35:00,22.1,17.7,30.27,WSW,257,1.0,1.0,83,0.00,,---,0.00,VWS V14.01,2013-11-19 07:35:00,
2013-11-19 01:40:00,22.0,17.6,30.27,West,267,0.0,1.0,83,0.00,,---,0.00,VWS V14.01,2013-11-19 07:40:00,
2013-11-19 01:45:00,21.9,17.5,30.27,West,273,0.0,1.0,83,0.00,,---,0.00,VWS V14.01,2013-11-19 07:45:00,
2013-11-19 01:51:00,21.8,17.4,30.27,West,274,0.0,1.0,83,0.00,,---,0.00,VWS V14.01,2013-11-19 07:51:00,
2013-11-19 01:56:00,21.6,17.5,30.27,West,271,0.0,1.0,84,0.00,,---,0.00,VWS V14.01,2013-11-19 07:56:00,
2013-11-19 02:01:00,21.5,17.4,30.28,West,277,0.0,1.0,84,0.00,,---,0.00,VWS V14.01,2013-11-19 08:01:00,
2013-11-19 02:06:00,21.3,17.5,30.28,West,277,0.0,0.0,85,0.00,,---,0.00,VWS V14.01,2013-11-19 08:06:00,
2013-11-19 02:11:00,21.3,17.5,30.28,West,277,0.0,0.0,85,0.00,,---,0.00,VWS V14.01,2013-11-19 08:11:00,
2013-11-19 02:16:00,20.8,17.0,30.28,West,277,0.0,0.0,85,0.00,,---,0.00,VWS V14.01,2013-11-19 08:16:00,
2013-11-19 02:21:00,20.3,16.5,30.28,West,277,0.0,0.0,85,0.00,,---,0.00,VWS V14.01,2013-11-19 08:21:00,
2013-11-19 02:26:00,19.8,16.3,30.28,West,277,0.0,0.0,86,0.00,,---,0.00,VWS V14.01,2013-11-19 08:26:00,
2013-11-19 02:31:00,19.2,15.7,30.28,West,277,0.0,0.0,86,0.00,,---,0.00,VWS V14.01,2013-11-19 08:31:00,
2013-11-19 02:36:00,19.0,16.0,30.28,West,277,0.0,0.0,88,0.00,,---,0.00,VWS V14.01,2013-11-19 08:36:00,
2013-11-19 02:41:00,19.0,16.3,30.28,West,277,0.0,0.0,89,0.00,,---,0.00,VWS V14.01,2013-11-19 08:41:00,
2013-11-19 02:46:00,18.7,16.0,30.29,West,277,0.0,0.0,89,0.00,,---,0.00,VWS V14.01,2013-11-19 08:46:00,
2013-11-19 02:51:00,18.5,15.8,30.29,West,277,0.0,0.0,89,0.00,,---,0.00,VWS V14.01,2013-11-19 08:51:00,
2013-11-19 02:56:00,18.3,15.9,30.29,West,277,0.0,0.0,90,0.00,,---,0.00,VWS V14.01,2013-11-19 08:56:00,
2013-11-19 03:01:00,18.2,15.8,30.29,West,277,0.0,0.0,90,0.00,,---,0.00,VWS V14.01,2013-11-19 09:01:00,
2013-11-19 03:06:00,18.1,15.7,30.29,West,277,0.0,0.0,90,0.00,,---,0.00,VWS V14.01,2013-11-19 09:06:00,
2013-11-19 03:11:00,17.8,15.6,30.29,West,277,0.0,0.0,91,0.00,,---,0.00,VWS V14.01,2013-11-19 09:11:00,
2013-11-19 03:16:00,17.7,15.5,30.29,West,277,0.0,0.0,91,0.00,,---,0.00,VWS V14.01,2013-11-19 09:16:00,
2013-11-19 03:21:00,17.8,15.6,30.29,West,277,0.0,0.0,91,0.00,,---,0.00,VWS V14.01,2013-11-19 09:21:00,
2013-11-19 03:26:00,17.6,15.4,30.29,West,277,0.0,0.0,91,0.00,,---,0.00,VWS V14.01,2013-11-19 09:26:00,
2013-11-19 03:32:00,17.4,15.2,30.29,West,277,0.0,0.0,91,0.00,,---,0.00,VWS V14.01,2013-11-19 09:32:00,
2013-11-19 03:37:00,17.1,14.9,30.29,West,277,0.0,0.0,91,0.00,,---,0.00,VWS V14.01,2013-11-19 09:37:00,
2013-11-19 03:42:00,16.8,14.9,30.29,West,277,0.0,0.0,92,0.00,,---,0.00,VWS V14.01,2013-11-19 09:42:00,
2013-11-19 03:47:00,16.6,14.7,30.30,West,277,0.0,0.0,92,0.00,,---,0.00,VWS V14.01,2013-11-19 09:47:00,
2013-11-19 03:52:00,16.3,14.4,30.30,West,277,0.0,0.0,92,0.00,,---,0.00,VWS V14.01,2013-11-19 09:52:00,
2013-11-19 03:57:00,16.5,14.8,30.30,West,277,0.0,0.0,93,0.00,,---,0.00,VWS V14.01,2013-11-19 09:57:00,
2013-11-19 04:02:00,16.7,15.0,30.31,West,277,0.0,0.0,93,0.00,,---,0.00,VWS V14.01,2013-11-19 10:02:00,
2013-11-19 04:07:00,16.5,14.8,30.31,West,277,0.0,0.0,93,0.00,,---,0.00,VWS V14.01,2013-11-19 10:07:00,
2013-11-19 04:12:00,16.3,14.6,30.31,West,277,0.0,0.0,93,0.00,,---,0.00,VWS V14.01,2013-11-19 10:12:00,
2013-11-19 04:17:00,16.5,14.8,30.31,West,277,0.0,0.0,93,0.00,,---,0.00,VWS V14.01,2013-11-19 10:17:00,
2013-11-19 04:22:00,16.5,14.8,30.31,West,277,0.0,0.0,93,0.00,,---,0.00,VWS V14.01,2013-11-19 10:22:00,
2013-11-19 04:27:00,16.2,14.5,30.31,West,277,0.0,0.0,93,0.00,,---,0.00,VWS V14.01,2013-11-19 10:27:00,
2013-11-19 04:32:00,16.1,14.4,30.33,West,277,0.0,0.0,93,0.00,,---,0.00,VWS V14.01,2013-11-19 10:32:00,
2013-11-19 04:37:00,16.2,14.8,30.33,West,277,0.0,0.0,94,0.00,,---,0.00,VWS V14.01,2013-11-19 10:37:00,
2013-11-19 04:42:00,16.0,14.3,30.33,West,277,0.0,0.0,93,0.00,,---,0.00,VWS V14.01,2013-11-19 10:42:00,
2013-11-19 04:47:00,15.9,14.2,30.32,West,277,0.0,0.0,93,0.00,,---,0.00,VWS V14.01,2013-11-19 10:47:00,
2013-11-19 04:52:00,16.1,14.7,30.32,West,277,0.0,0.0,94,0.00,,---,0.00,VWS V14.01,2013-11-19 10:52:00,
2013-11-19 04:57:00,16.1,14.7,30.32,West,277,0.0,0.0,94,0.00,,---,0.00,VWS V14.01,2013-11-19 10:57:00,
2013-11-19 05:03:00,16.2,14.8,30.33,West,277,0.0,0.0,94,0.00,,---,0.00,VWS V14.01,2013-11-19 11:03:00,
2013-11-19 05:08:00,16.2,14.8,30.33,West,277,0.0,0.0,94,0.00,,---,0.00,VWS V14.01,2013-11-19 11:08:00,
2013-11-19 05:13:00,16.2,14.8,30.33,West,277,0.0,0.0,94,0.00,,---,0.00,VWS V14.01,2013-11-19 11:13:00,
2013-11-19 05:18:00,16.0,14.3,30.33,West,277,0.0,0.0,93,0.00,,---,0.00,VWS V14.01,2013-11-19 11:18:00,
2013-11-19 05:23:00,15.8,14.1,30.33,West,277,0.0,0.0,93,0.00,,---,0.00,VWS V14.01,2013-11-19 11:23:00,
2013-11-19 05:28:00,15.6,13.9,30.33,West,277,0.0,0.0,93,0.00,,---,0.00,VWS V14.01,2013-11-19 11:28:00,
2013-11-19 05:33:00,15.7,14.3,30.33,West,277,0.0,0.0,94,0.00,,---,0.00,VWS V14.01,2013-11-19 11:33:00,
2013-11-19 05:38:00,15.8,14.4,30.33,West,277,0.0,0.0,94,0.00,,---,0.00,VWS V14.01,2013-11-19 11:38:00,
2013-11-19 05:43:00,15.9,14.5,30.33,WNW,283,0.0,0.0,94,0.00,,---,0.00,VWS V14.01,2013-11-19 11:43:00,
2013-11-19 05:48:00,15.8,14.1,30.33,WNW,283,0.0,0.0,93,0.00,,---,0.00,VWS V14.01,2013-11-19 11:48:00,
2013-11-19 05:53:00,15.6,13.9,30.33,WNW,283,0.0,0.0,93,0.00,,---,0.00,VWS V14.01,2013-11-19 11:53:00,
2013-11-19 05:58:00,15.4,13.7,30.33,WNW,283,0.0,0.0,93,0.00,,---,0.00,VWS V14.01,2013-11-19 11:58:00,
2013-11-19 06:03:00,15.4,13.7,30.34,WNW,282,0.0,0.0,93,0.00,,---,0.00,VWS V14.01,2013-11-19 12:03:00,
2013-11-19 06:08:00,15.2,13.5,30.34,WNW,282,0.0,0.0,93,0.00,,---,0.00,VWS V14.01,2013-11-19 12:08:00,
2013-11-19 06:13:00,15.2,13.8,30.34,WNW,283,0.0,0.0,94,0.00,,---,0.00,VWS V14.01,2013-11-19 12:13:00,
2013-11-19 06:18:00,15.3,13.9,30.35,WNW,282,0.0,0.0,94,0.00,,---,0.00,VWS V14.01,2013-11-19 12:18:00,
2013-11-19 06:23:00,15.2,13.8,30.35,WNW,283,0.0,0.0,94,0.00,,---,0.00,VWS V14.01,2013-11-19 12:23:00,
2013-11-19 06:28:00,15.1,13.7,30.35,WNW,283,0.0,0.0,94,0.00,,---,0.00,VWS V14.01,2013-11-19 12:28:00,
2013-11-19 06:34:00,15.2,13.8,30.35,WNW,283,0.0,0.0,94,0.00,,---,0.00,VWS V14.01,2013-11-19 12:34:00,
2013-11-19 06:39:00,15.2,13.8,30.35,WNW,283,0.0,0.0,94,0.00,,---,0.00,VWS V14.01,2013-11-19 12:39:00,
2013-11-19 06:44:00,15.1,13.7,30.35,WNW,283,0.0,0.0,94,0.00,,---,0.00,VWS V14.01,2013-11-19 12:44:00,
2013-11-19 06:49:00,15.1,13.4,30.35,WNW,282,0.0,0.0,93,0.00,,---,0.00,VWS V14.01,2013-11-19 12:49:00,
2013-11-19 06:54:00,15.0,13.3,30.35,WNW,282,0.0,0.0,93,0.00,,---,0.00,VWS V14.01,2013-11-19 12:54:00,
2013-11-19 06:59:00,14.9,13.2,30.35,WNW,283,0.0,0.0,93,0.00,,---,0.00,VWS V14.01,2013-11-19 12:59:00,
2013-11-19 07:04:00,15.0,13.6,30.35,WNW,282,0.0,0.0,94,0.00,,---,0.00,VWS V14.01,2013-11-19 13:04:00,
2013-11-19 07:09:00,15.1,13.7,30.35,WNW,283,0.0,0.0,94,0.00,,---,0.00,VWS V14.01,2013-11-19 13:09:00,
2013-11-19 07:14:00,15.0,13.3,30.35,WNW,283,0.0,0.0,93,0.00,,---,0.00,VWS V14.01,2013-11-19 13:14:00,
2013-11-19 07:19:00,15.0,13.3,30.36,WNW,282,0.0,0.0,93,0.00,,---,0.00,VWS V14.01,2013-11-19 13:19:00,
2013-11-19 07:24:00,15.1,13.7,30.36,WNW,283,0.0,0.0,94,0.00,,---,0.00,VWS V14.01,2013-11-19 13:24:00,
2013-11-19 07:29:00,15.1,13.7,30.36,WNW,283,0.0,0.0,94,0.00,,---,0.00,VWS V14.01,2013-11-19 13:29:00,
2013-11-19 07:34:00,15.2,13.8,30.36,WNW,283,0.0,0.0,94,0.00,,---,0.00,VWS V14.01,2013-11-19 13:34:00,
2013-11-19 07:39:00,15.2,13.8,30.36,WNW,282,0.0,0.0,94,0.00,,---,0.00,VWS V14.01,2013-11-19 13:39:00,
2013-11-19 07:44:00,15.6,14.2,30.36,WNW,282,0.0,0.0,94,0.00,,---,0.00,VWS V14.01,2013-11-19 13:44:00,
2013-11-19 07:49:00,15.6,14.2,30.36,WNW,282,0.0,0.0,94,0.00,,---,0.00,VWS V14.01,2013-11-19 13:49:00,
2013-11-19 07:54:00,15.8,14.4,30.36,WNW,282,0.0,0.0,94,0.00,,---,0.00,VWS V14.01,2013-11-19 13:54:00,
2013-11-19 08:00:00,16.2,14.8,30.36,WNW,282,0.0,0.0,94,0.00,,---,0.00,VWS V14.01,2013-11-19 14:00:00,
2013-11-19 08:05:00,16.5,15.1,30.36,WNW,282,0.0,0.0,94,0.00,,---,0.00,VWS V14.01,2013-11-19 14:05:00,
2013-11-19 08:10:00,16.9,15.5,30.36,WNW,283,0.0,0.0,94,0.00,,---,0.00,VWS V14.01,2013-11-19 14:10:00,
2013-11-19 08:15:00,17.7,16.5,30.36,WNW,283,0.0,0.0,95,0.00,,---,0.00,VWS V14.01,2013-11-19 14:15:00,
2013-11-19 08:20:00,18.3,16.9,30.36,SW,214,0.0,0.0,94,0.00,,---,0.00,VWS V14.01,2013-11-19 14:20:00,
2013-11-19 08:25:00,18.9,17.5,30.36,SW,215,0.0,0.0,94,0.00,,---,0.00,VWS V14.01,2013-11-19 14:25:00,
2013-11-19 08:29:00,19.6,18.2,30.36,ESE,122,0.0,0.0,94,0.00,,---,0.00,VWS V14.01,2013-11-19 14:29:00,
2013-11-19 08:34:00,20.0,18.0,30.36,ESE,115,0.0,0.0,92,0.00,,---,0.00,VWS V14.01,2013-11-19 14:34:00,
2013-11-19 08:39:00,20.5,18.5,30.36,ESE,117,0.0,0.0,92,0.00,,---,0.00,VWS V14.01,2013-11-19 14:39:00,
2013-11-19 08:44:00,21.0,18.8,30.36,SSE,161,0.0,0.0,91,0.00,,---,0.00,VWS V14.01,2013-11-19 14:44:00,
2013-11-19 08:50:00,21.3,19.1,30.36,SE,134,0.0,0.0,91,0.00,,---,0.00,VWS V14.01,2013-11-19 14:50:00,
2013-11-19 09:05:00,23.0,19.7,30.36,SSE,149,0.0,0.0,87,0.00,,---,0.00,VWS V14.01,2013-11-19 15:05:00,
2013-11-19 09:10:00,23.5,19.9,30.36,SSE,152,2.0,2.0,86,0.00,,---,0.00,VWS V14.01,2013-11-19 15:10:00,
2013-11-19 09:19:00,24.0,20.4,30.36,ESE,105,0.0,0.0,86,0.00,,---,0.00,VWS V14.01,2013-11-19 15:19:00,
2013-11-19 09:24:00,24.2,20.4,30.36,South,171,1.0,3.0,85,0.00,,---,0.00,VWS V14.01,2013-11-19 15:24:00,
2013-11-19 09:29:00,24.4,20.3,30.36,SE,138,1.0,3.0,84,0.00,,---,0.00,VWS V14.01,2013-11-19 15:29:00,
2013-11-19 09:34:00,24.8,20.4,30.36,ESE,113,2.0,2.0,83,0.00,,---,0.00,VWS V14.01,2013-11-19 15:34:00,
2013-11-19 09:39:00,25.1,20.4,30.36,SSE,161,1.0,3.0,82,0.00,,---,0.00,VWS V14.01,2013-11-19 15:39:00,
2013-11-19 09:44:00,25.5,20.5,30.36,ESE,123,3.0,4.0,81,0.00,,---,0.00,VWS V14.01,2013-11-19 15:44:00,
2013-11-19 09:49:00,25.7,20.4,30.36,ESE,115,3.0,5.0,80,0.00,,---,0.00,VWS V14.01,2013-11-19 15:49:00,
2013-11-19 09:54:00,25.9,20.3,30.36,SE,133,1.0,5.0,79,0.00,,---,0.00,VWS V14.01,2013-11-19 15:54:00,
2013-11-19 09:59:00,26.2,20.3,30.36,ESE,105,1.0,5.0,78,0.00,,---,0.00,VWS V14.01,2013-11-19 15:59:00,
2013-11-19 10:04:00,26.6,21.0,30.36,ESE,115,0.0,1.0,79,0.00,,---,0.00,VWS V14.01,2013-11-19 16:04:00,
2013-11-19 10:09:00,26.9,20.7,30.36,East,94,1.0,2.0,77,0.00,,---,0.00,VWS V14.01,2013-11-19 16:09:00,
2013-11-19 10:14:00,27.2,21.0,30.36,East,101,1.0,2.0,77,0.00,,---,0.00,VWS V14.01,2013-11-19 16:14:00,
2013-11-19 10:19:00,27.4,20.8,30.36,SE,140,0.0,2.0,76,0.00,,---,0.00,VWS V14.01,2013-11-19 16:19:00,
2013-11-19 10:24:00,27.7,20.8,30.36,ESE,123,2.0,3.0,75,0.00,,---,0.00,VWS V14.01,2013-11-19 16:24:00,
2013-11-19 10:30:00,27.9,21.3,30.36,SE,146,0.0,5.0,76,0.00,,---,0.00,VWS V14.01,2013-11-19 16:30:00,
2013-11-19 10:35:00,28.2,21.3,30.36,SE,141,1.0,2.0,75,0.00,,---,0.00,VWS V14.01,2013-11-19 16:35:00,
2013-11-19 10:40:00,28.6,21.1,30.36,SE,133,1.0,3.0,73,0.00,,---,0.00,VWS V14.01,2013-11-19 16:40:00,
2013-11-19 10:45:00,28.9,21.4,30.36,SSE,155,1.0,4.0,73,0.00,,---,0.00,VWS V14.01,2013-11-19 16:45:00,
2013-11-19 10:50:00,29.5,21.6,30.35,SE,125,1.0,4.0,72,0.00,,---,0.00,VWS V14.01,2013-11-19 16:50:00,
2013-11-19 10:55:00,29.7,21.1,30.35,SE,126,1.0,4.0,70,0.00,,---,0.00,VWS V14.01,2013-11-19 16:55:00,
2013-11-19 11:00:00,29.8,20.9,30.34,SE,134,3.0,5.0,69,0.00,,---,0.00,VWS V14.01,2013-11-19 17:00:00,
2013-11-19 11:05:00,29.8,21.2,30.34,WSW,244,0.0,4.0,70,0.00,,---,0.00,VWS V14.01,2013-11-19 17:05:00,
2013-11-19 11:11:00,30.4,21.5,30.34,ESE,111,5.0,5.0,69,0.00,,---,0.00,VWS V14.01,2013-11-19 17:11:00,
2013-11-19 11:16:00,30.2,20.9,30.33,ESE,111,2.0,5.0,68,0.00,,---,0.00,VWS V14.01,2013-11-19 17:16:00,
2013-11-19 11:21:00,30.4,21.5,30.33,ESE,102,3.0,5.0,69,0.00,,---,0.00,VWS V14.01,2013-11-19 17:21:00,
2013-11-19 11:26:00,30.6,21.3,30.33,East,101,3.0,5.0,68,0.00,,---,0.00,VWS V14.01,2013-11-19 17:26:00,
2013-11-19 11:31:00,31.0,21.0,30.32,SSE,149,2.0,5.0,66,0.00,,---,0.00,VWS V14.01,2013-11-19 17:31:00,
2013-11-19 11:36:00,31.2,20.8,30.32,ESE,104,3.0,5.0,65,0.00,,---,0.00,VWS V14.01,2013-11-19 17:36:00,
2013-11-19 11:38:00,31.2,20.5,30.32,ESE,119,2.0,6.0,64,0.00,,---,0.00,VWS V14.01,2013-11-19 17:38:00,
2013-11-19 11:43:00,31.6,21.2,30.32,ESE,113,2.0,7.0,65,0.00,,---,0.00,VWS V14.01,2013-11-19 17:43:00,
2013-11-19 11:48:00,31.8,21.0,30.32,ESE,113,3.0,7.0,64,0.00,,---,0.00,VWS V14.01,2013-11-19 17:48:00,
2013-11-19 11:53:00,32.0,21.2,30.32,SSE,150,1.0,7.0,64,0.00,,---,0.00,VWS V14.01,2013-11-19 17:53:00,
2013-11-19 11:58:00,32.3,21.1,30.32,West,263,2.0,7.0,63,0.00,,---,0.00,VWS V14.01,2013-11-19 17:58:00,
2013-11-19 12:03:00,32.6,21.0,30.32,SE,144,3.0,5.0,62,0.00,,---,0.00,VWS V14.01,2013-11-19 18:03:00,
2013-11-19 12:08:00,32.8,21.2,30.32,ESE,109,3.0,7.0,62,0.00,,---,0.00,VWS V14.01,2013-11-19 18:08:00,
2013-11-19 12:13:00,32.9,20.5,30.32,ESE,114,4.0,7.0,60,0.00,,---,0.00,VWS V14.01,2013-11-19 18:13:00,
2013-11-19 12:18:00,33.2,21.2,30.31,ESE,114,3.0,7.0,61,0.00,,---,0.00,VWS V14.01,2013-11-19 18:18:00,
2013-11-19 12:23:00,33.4,21.0,30.31,SE,125,2.0,7.0,60,0.00,,---,0.00,VWS V14.01,2013-11-19 18:23:00,
2013-11-19 12:29:00,33.5,21.5,30.31,SE,126,2.0,7.0,61,0.00,,---,0.00,VWS V14.01,2013-11-19 18:29:00,
2013-11-19 12:34:00,33.8,21.8,30.31,SE,133,2.0,4.0,61,0.00,,---,0.00,VWS V14.01,2013-11-19 18:34:00,
2013-11-19 12:39:00,34.3,21.5,30.31,SSW,211,2.0,4.0,59,0.00,,---,0.00,VWS V14.01,2013-11-19 18:39:00,
2013-11-19 12:44:00,34.5,20.9,30.31,SSE,165,2.0,6.0,57,0.00,,---,0.00,VWS V14.01,2013-11-19 18:44:00,
2013-11-19 12:49:00,34.8,21.5,30.30,ESE,123,3.0,6.0,58,0.00,,---,0.00,VWS V14.01,2013-11-19 18:49:00,
2013-11-19 12:54:00,34.9,21.6,30.30,ESE,117,1.0,6.0,58,0.00,,---,0.00,VWS V14.01,2013-11-19 18:54:00,
2013-11-19 12:59:00,35.0,21.7,30.30,ESE,121,3.0,6.0,58,0.00,,---,0.00,VWS V14.01,2013-11-19 18:59:00,
2013-11-19 13:04:00,35.1,21.4,30.30,ESE,115,3.0,5.0,57,0.00,,---,0.00,VWS V14.01,2013-11-19 19:04:00,
2013-11-19 13:08:00,35.1,21.4,30.30,ESE,111,3.0,5.0,57,0.00,,---,0.00,VWS V14.01,2013-11-19 19:08:00,
2013-11-19 13:13:00,35.1,21.8,30.30,SE,137,3.0,5.0,58,0.00,,---,0.00,VWS V14.01,2013-11-19 19:13:00,
2013-11-19 13:18:00,35.1,21.0,30.30,West,264,2.0,5.0,56,0.00,,---,0.00,VWS V14.01,2013-11-19 19:18:00,
2013-11-19 13:23:00,35.4,21.3,30.30,SSE,157,3.0,6.0,56,0.00,,---,0.00,VWS V14.01,2013-11-19 19:23:00,
2013-11-19 13:29:00,35.5,21.0,30.30,SSW,200,3.0,8.0,55,0.00,,---,0.00,VWS V14.01,2013-11-19 19:29:00,
2013-11-19 13:34:00,35.4,21.3,30.30,SE,130,2.0,5.0,56,0.00,,---,0.00,VWS V14.01,2013-11-19 19:34:00,
2013-11-19 13:39:00,35.4,20.9,30.30,SE,142,3.0,5.0,55,0.00,,---,0.00,VWS V14.01,2013-11-19 19:39:00,
2013-11-19 13:44:00,35.2,20.7,30.30,SSE,150,2.0,6.0,55,0.00,,---,0.00,VWS V14.01,2013-11-19 19:44:00,
2013-11-19 13:49:00,35.0,20.9,30.28,ESE,113,4.0,7.0,56,0.00,,---,0.00,VWS V14.01,2013-11-19 19:49:00,
2013-11-19 13:54:00,35.0,20.9,30.28,SSW,208,3.0,7.0,56,0.00,,---,0.00,VWS V14.01,2013-11-19 19:54:00,
2013-11-19 13:59:00,35.1,21.0,30.28,ESE,114,4.0,7.0,56,0.00,,---,0.00,VWS V14.01,2013-11-19 19:59:00,
2013-11-19 14:04:00,35.1,21.4,30.27,ESE,107,2.0,5.0,57,0.00,,---,0.00,VWS V14.01,2013-11-19 20:04:00,
2013-11-19 14:09:00,35.1,21.0,30.27,SE,145,3.0,8.0,56,0.00,,---,0.00,VWS V14.01,2013-11-19 20:09:00,
2013-11-19 14:14:00,35.1,21.4,30.27,ESE,102,2.0,8.0,57,0.00,,---,0.00,VWS V14.01,2013-11-19 20:14:00,
2013-11-19 14:19:00,35.1,21.4,30.27,SSE,150,4.0,8.0,57,0.00,,---,0.00,VWS V14.01,2013-11-19 20:19:00,
2013-11-19 14:24:00,35.2,22.3,30.27,SE,126,2.0,8.0,59,0.00,,---,0.00,VWS V14.01,2013-11-19 20:24:00,
2013-11-19 14:29:00,35.1,21.4,30.27,SE,134,3.0,8.0,57,0.00,,---,0.00,VWS V14.01,2013-11-19 20:29:00,
2013-11-19 14:34:00,34.9,21.2,30.26,SE,127,3.0,5.0,57,0.00,,---,0.00,VWS V14.01,2013-11-19 20:34:00,
2013-11-19 14:39:00,34.5,21.3,30.26,SE,129,2.0,5.0,58,0.00,,---,0.00,VWS V14.01,2013-11-19 20:39:00,
2013-11-19 14:44:00,34.1,21.3,30.26,ESE,121,3.0,5.0,59,0.00,,---,0.00,VWS V14.01,2013-11-19 20:44:00,
2013-11-19 14:49:00,33.9,21.1,30.25,SE,125,3.0,5.0,59,0.00,,---,0.00,VWS V14.01,2013-11-19 20:49:00,
2013-11-19 14:54:00,33.7,21.3,30.25,SSE,159,2.0,5.0,60,0.00,,---,0.00,VWS V14.01,2013-11-19 20:54:00,
2013-11-19 15:00:00,33.6,21.2,30.25,SE,126,2.0,5.0,60,0.00,,---,0.00,VWS V14.01,2013-11-19 21:00:00,
2013-11-19 15:05:00,33.5,21.1,30.26,SE,133,4.0,4.0,60,0.00,,---,0.00,VWS V14.01,2013-11-19 21:05:00,
2013-11-19 15:10:00,33.4,21.4,30.26,ESE,106,3.0,4.0,61,0.00,,---,0.00,VWS V14.01,2013-11-19 21:10:00,
2013-11-19 15:15:00,33.3,21.3,30.26,SE,124,3.0,6.0,61,0.00,,---,0.00,VWS V14.01,2013-11-19 21:15:00,
2013-11-19 15:20:00,33.2,20.8,30.25,SE,143,3.0,6.0,60,0.00,,---,0.00,VWS V14.01,2013-11-19 21:20:00,
2013-11-19 15:25:00,33.1,20.7,30.25,SE,125,4.0,6.0,60,0.00,,---,0.00,VWS V14.01,2013-11-19 21:25:00,
2013-11-19 15:30:00,33.0,20.6,30.25,SE,137,3.0,6.0,60,0.00,,---,0.00,VWS V14.01,2013-11-19 21:30:00,
2013-11-19 15:35:00,32.9,20.9,30.25,SE,132,1.0,5.0,61,0.00,,---,0.00,VWS V14.01,2013-11-19 21:35:00,
2013-11-19 15:40:00,32.8,20.9,30.25,ESE,102,2.0,5.0,61,0.00,,---,0.00,VWS V14.01,2013-11-19 21:40:00,
2013-11-19 15:45:00,32.7,20.8,30.25,SSE,155,2.0,5.0,61,0.00,,---,0.00,VWS V14.01,2013-11-19 21:45:00,
2013-11-19 15:50:00,32.6,20.7,30.25,ESE,106,2.0,5.0,61,0.00,,---,0.00,VWS V14.01,2013-11-19 21:50:00,
2013-11-19 15:55:00,32.4,20.9,30.25,SE,126,2.0,5.0,62,0.00,,---,0.00,VWS V14.01,2013-11-19 21:55:00,
2013-11-19 16:00:00,32.2,20.7,30.25,SE,124,2.0,5.0,62,0.00,,---,0.00,VWS V14.01,2013-11-19 22:00:00,
2013-11-19 16:05:00,32.1,20.9,30.25,ESE,121,2.0,3.0,63,0.00,,---,0.00,VWS V14.01,2013-11-19 22:05:00,
2013-11-19 16:10:00,31.8,20.7,30.25,ESE,119,2.0,3.0,63,0.00,,---,0.00,VWS V14.01,2013-11-19 22:10:00,
2013-11-19 16:15:00,31.7,20.9,30.25,ESE,113,2.0,3.0,64,0.00,,---,0.00,VWS V14.01,2013-11-19 22:15:00,
2013-11-19 16:20:00,31.5,21.1,30.25,SE,130,2.0,3.0,65,0.00,,---,0.00,VWS V14.01,2013-11-19 22:20:00,
2013-11-19 16:26:00,31.3,20.9,30.25,SE,136,2.0,3.0,65,0.00,,---,0.00,VWS V14.01,2013-11-19 22:26:00,
2013-11-19 16:31:00,31.2,20.8,30.25,ESE,119,2.0,3.0,65,0.00,,---,0.00,VWS V14.01,2013-11-19 22:31:00,
2013-11-19 16:36:00,31.0,20.6,30.25,ESE,113,3.0,4.0,65,0.00,,---,0.00,VWS V14.01,2013-11-19 22:36:00,
2013-11-19 16:41:00,31.1,20.7,30.25,ESE,119,3.0,5.0,65,0.00,,---,0.00,VWS V14.01,2013-11-19 22:41:00,
2013-11-19 16:46:00,31.0,20.6,30.25,ESE,119,3.0,5.0,65,0.00,,---,0.00,VWS V14.01,2013-11-19 22:46:00,
2013-11-19 16:51:00,30.8,20.4,30.25,ESE,115,4.0,5.0,65,0.00,,---,0.00,VWS V14.01,2013-11-19 22:51:00,
2013-11-19 16:56:00,30.9,20.5,30.25,SE,131,3.0,8.0,65,0.00,,---,0.00,VWS V14.01,2013-11-19 22:56:00,
2013-11-19 17:01:00,30.9,20.5,30.24,ESE,111,4.0,8.0,65,0.00,,---,0.00,VWS V14.01,2013-11-19 23:01:00,
2013-11-19 17:06:00,30.8,20.4,30.24,ESE,118,3.0,6.0,65,0.00,,---,0.00,VWS V14.01,2013-11-19 23:06:00,
2013-11-19 17:11:00,30.8,20.4,30.24,SSE,167,3.0,7.0,65,0.00,,---,0.00,VWS V14.01,2013-11-19 23:11:00,
2013-11-19 17:16:00,30.9,20.5,30.24,ESE,119,3.0,7.0,65,0.00,,---,0.00,VWS V14.01,2013-11-19 23:16:00,
2013-11-19 17:21:00,30.8,20.4,30.24,SE,133,2.0,7.0,65,0.00,,---,0.00,VWS V14.01,2013-11-19 23:21:00,
2013-11-19 17:26:00,30.8,20.4,30.24,ESE,117,5.0,7.0,65,0.00,,---,0.00,VWS V14.01,2013-11-19 23:26:00,
2013-11-19 17:31:00,30.8,20.4,30.24,SSE,154,4.0,4.0,65,0.00,,---,0.00,VWS V14.01,2013-11-19 23:31:00,
2013-11-19 17:36:00,30.8,20.4,30.24,ESE,110,4.0,5.0,65,0.00,,---,0.00,VWS V14.01,2013-11-19 23:36:00,
2013-11-19 17:41:00,30.8,20.8,30.24,SE,134,3.0,5.0,66,0.00,,---,0.00,VWS V14.01,2013-11-19 23:41:00,
2013-11-19 17:46:00,30.8,20.8,30.24,ESE,115,4.0,5.0,66,0.00,,---,0.00,VWS V14.01,2013-11-19 23:46:00,
2013-11-19 17:51:00,30.8,20.8,30.24,SE,126,3.0,8.0,66,0.00,,---,0.00,VWS V14.01,2013-11-19 23:51:00,
2013-11-19 17:57:00,30.8,20.8,30.24,SE,136,2.0,8.0,66,0.00,,---,0.00,VWS V14.01,2013-11-19 23:57:00,
2013-11-19 18:02:00,30.8,20.8,30.24,ESE,115,4.0,7.0,66,0.00,,---,0.00,VWS V14.01,2013-11-20 00:02:00,
2013-11-19 18:07:00,30.9,20.9,30.24,ESE,105,4.0,7.0,66,0.00,,---,0.00,VWS V14.01,2013-11-20 00:07:00,
2013-11-19 18:12:00,30.9,21.2,30.24,SE,128,3.0,7.0,67,0.00,,---,0.00,VWS V14.01,2013-11-20 00:12:00,
2013-11-19 18:17:00,30.9,21.2,30.23,East,92,3.0,7.0,67,0.00,,---,0.00,VWS V14.01,2013-11-20 00:17:00,
2013-11-19 18:22:00,30.9,21.2,30.23,ESE,110,4.0,8.0,67,0.00,,---,0.00,VWS V14.01,2013-11-20 00:22:00,
2013-11-19 18:27:00,30.9,21.2,30.23,ESE,107,4.0,8.0,67,0.00,,---,0.00,VWS V14.01,2013-11-20 00:27:00,
2013-11-19 18:32:00,30.9,21.6,30.23,ESE,115,3.0,5.0,68,0.00,,---,0.00,VWS V14.01,2013-11-20 00:32:00,
2013-11-19 18:37:00,30.9,21.6,30.23,ESE,113,3.0,6.0,68,0.00,,---,0.00,VWS V14.01,2013-11-20 00:37:00,
2013-11-19 18:42:00,30.9,21.6,30.23,ESE,113,5.0,6.0,68,0.00,,---,0.00,VWS V14.01,2013-11-20 00:42:00,
2013-11-19 18:47:00,30.9,21.6,30.22,SE,140,5.0,10.0,68,0.00,,---,0.00,VWS V14.01,2013-11-20 00:47:00,
2013-11-19 18:52:00,31.0,21.7,30.22,ESE,121,3.0,10.0,68,0.00,,---,0.00,VWS V14.01,2013-11-20 00:52:00,
2013-11-19 18:57:00,30.9,21.9,30.22,ESE,113,5.0,10.0,69,0.00,,---,0.00,VWS V14.01,2013-11-20 00:57:00,
2013-11-19 19:02:00,30.9,21.9,30.21,ESE,121,8.0,8.0,69,0.00,,---,0.00,VWS V14.01,2013-11-20 01:02:00,
2013-11-19 19:07:00,31.0,22.4,30.21,SE,139,2.0,9.0,70,0.00,,---,0.00,VWS V14.01,2013-11-20 01:07:00,
2013-11-19 19:12:00,30.9,22.3,30.21,ESE,114,4.0,9.0,70,0.00,,---,0.00,VWS V14.01,2013-11-20 01:12:00,
2013-11-19 19:17:00,30.9,22.3,30.21,ESE,119,4.0,9.0,70,0.00,,---,0.00,VWS V14.01,2013-11-20 01:17:00,
2013-11-19 19:22:00,30.9,22.6,30.21,East,87,5.0,9.0,71,0.00,,---,0.00,VWS V14.01,2013-11-20 01:22:00,
2013-11-19 19:27:00,31.0,22.7,30.21,SE,146,3.0,9.0,71,0.00,,---,0.00,VWS V14.01,2013-11-20 01:27:00,
2013-11-19 19:33:00,31.0,22.7,30.21,SSE,148,3.0,8.0,71,0.00,,---,0.00,VWS V14.01,2013-11-20 01:33:00,
2013-11-19 19:38:00,31.0,22.7,30.21,ESE,119,5.0,8.0,71,0.00,,---,0.00,VWS V14.01,2013-11-20 01:38:00,
2013-11-19 19:43:00,31.0,23.0,30.21,SE,132,3.0,8.0,72,0.00,,---,0.00,VWS V14.01,2013-11-20 01:43:00,
2013-11-19 19:48:00,31.0,23.0,30.21,ESE,115,3.0,8.0,72,0.00,,---,0.00,VWS V14.01,2013-11-20 01:48:00,
2013-11-19 19:53:00,31.0,23.0,30.21,SE,132,5.0,9.0,72,0.00,,---,0.00,VWS V14.01,2013-11-20 01:53:00,
2013-11-19 19:58:00,31.0,23.4,30.21,SSE,156,4.0,9.0,73,0.00,,---,0.00,VWS V14.01,2013-11-20 01:58:00,
2013-11-19 20:03:00,31.0,23.4,30.21,ESE,113,7.0,7.0,73,0.00,,---,0.00,VWS V14.01,2013-11-20 02:03:00,
2013-11-19 20:08:00,31.1,23.5,30.21,SE,146,3.0,9.0,73,0.00,,---,0.00,VWS V14.01,2013-11-20 02:08:00,
2013-11-19 20:13:00,31.1,23.5,30.21,SE,133,3.0,9.0,73,0.00,,---,0.00,VWS V14.01,2013-11-20 02:13:00,
2013-11-19 20:18:00,31.1,23.5,30.20,SE,140,4.0,9.0,73,0.00,,---,0.00,VWS V14.01,2013-11-20 02:18:00,
2013-11-19 20:23:00,31.2,23.6,30.20,South,191,6.0,9.0,73,0.00,,---,0.00,VWS V14.01,2013-11-20 02:23:00,
2013-11-19 20:28:00,31.2,23.6,30.20,SE,144,4.0,9.0,73,0.00,,---,0.00,VWS V14.01,2013-11-20 02:28:00,
2013-11-19 20:33:00,31.3,23.7,30.20,ESE,107,3.0,6.0,73,0.00,,---,0.00,VWS V14.01,2013-11-20 02:33:00,
2013-11-19 20:38:00,31.2,23.6,30.20,ESE,102,2.0,8.0,73,0.00,,---,0.00,VWS V14.01,2013-11-20 02:38:00,
2013-11-19 20:43:00,31.2,23.9,30.20,SE,133,3.0,8.0,74,0.00,,---,0.00,VWS V14.01,2013-11-20 02:43:00,
2013-11-19 20:48:00,31.3,24.0,30.19,SE,134,2.0,8.0,74,0.00,,---,0.00,VWS V14.01,2013-11-20 02:48:00,
2013-11-19 20:53:00,31.2,23.9,30.19,SE,132,2.0,8.0,74,0.00,,---,0.00,VWS V14.01,2013-11-20 02:53:00,
2013-11-19 20:59:00,31.2,24.2,30.19,ESE,117,3.0,8.0,75,0.00,,---,0.00,VWS V14.01,2013-11-20 02:59:00,
2013-11-19 21:04:00,31.3,24.3,30.19,SSE,152,3.0,5.0,75,0.00,,---,0.00,VWS V14.01,2013-11-20 03:04:00,
2013-11-19 21:09:00,31.3,24.3,30.19,ESE,103,5.0,7.0,75,0.00,,---,0.00,VWS V14.01,2013-11-20 03:09:00,
2013-11-19 21:14:00,31.4,24.4,30.19,ESE,107,4.0,7.0,75,0.00,,---,0.00,VWS V14.01,2013-11-20 03:14:00,
2013-11-19 21:19:00,31.4,24.7,30.19,East,96,3.0,7.0,76,0.00,,---,0.00,VWS V14.01,2013-11-20 03:19:00,
2013-11-19 21:24:00,31.4,24.7,30.19,SE,126,4.0,7.0,76,0.00,,---,0.00,VWS V14.01,2013-11-20 03:24:00,
2013-11-19 21:29:00,31.4,24.7,30.19,SE,138,5.0,7.0,76,0.00,,---,0.00,VWS V14.01,2013-11-20 03:29:00,
2013-11-19 21:34:00,31.4,24.7,30.19,SE,133,3.0,5.0,76,0.00,,---,0.00,VWS V14.01,2013-11-20 03:34:00,
2013-11-19 21:39:00,31.5,24.8,30.19,South,180,5.0,8.0,76,0.00,,---,0.00,VWS V14.01,2013-11-20 03:39:00,
2013-11-19 21:44:00,31.5,24.8,30.19,ESE,114,4.0,8.0,76,0.00,,---,0.00,VWS V14.01,2013-11-20 03:44:00,
2013-11-19 21:49:00,31.5,24.8,30.19,SE,137,3.0,8.0,76,0.00,,---,0.00,VWS V14.01,2013-11-20 03:49:00,
2013-11-19 21:54:00,31.5,25.1,30.19,SE,124,5.0,8.0,77,0.00,,---,0.00,VWS V14.01,2013-11-20 03:54:00,
2013-11-19 21:59:00,31.5,25.1,30.19,SE,141,3.0,8.0,77,0.00,,---,0.00,VWS V14.01,2013-11-20 03:59:00,
2013-11-19 22:04:00,31.5,25.1,30.19,SE,128,2.0,6.0,77,0.00,,---,0.00,VWS V14.01,2013-11-20 04:04:00,
2013-11-19 22:09:00,31.4,25.4,30.19,South,178,1.0,7.0,78,0.00,,---,0.00,VWS V14.01,2013-11-20 04:09:00,
2013-11-19 22:14:00,31.4,25.4,30.19,SE,130,3.0,7.0,78,0.00,,---,0.00,VWS V14.01,2013-11-20 04:14:00,
2013-11-19 22:19:00,31.4,25.4,30.19,SE,141,5.0,7.0,78,0.00,,---,0.00,VWS V14.01,2013-11-20 04:19:00,
2013-11-19 22:25:00,31.4,25.6,30.19,SE,126,3.0,8.0,79,0.00,,---,0.00,VWS V14.01,2013-11-20 04:25:00,
2013-11-19 22:30:00,31.3,25.6,30.19,SE,124,4.0,8.0,79,0.00,,---,0.00,VWS V14.01,2013-11-20 04:30:00,
2013-11-19 22:35:00,31.3,25.6,30.19,SE,142,3.0,8.0,79,0.00,,---,0.00,VWS V14.01,2013-11-20 04:35:00,
2013-11-19 22:40:00,31.3,25.6,30.19,SE,133,3.0,8.0,79,0.00,,---,0.00,VWS V14.01,2013-11-20 04:40:00,
2013-11-19 22:45:00,31.4,25.6,30.19,ESE,119,5.0,8.0,79,0.00,,---,0.00,VWS V14.01,2013-11-20 04:45:00,
2013-11-19 22:50:00,31.4,25.6,30.19,SSE,163,5.0,8.0,79,0.00,,---,0.00,VWS V14.01,2013-11-20 04:50:00,
2013-11-19 22:55:00,31.4,25.6,30.19,SE,136,2.0,8.0,79,0.00,,---,0.00,VWS V14.01,2013-11-20 04:55:00,
2013-11-19 23:00:00,31.4,25.6,30.19,ESE,112,2.0,8.0,79,0.00,,---,0.00,VWS V14.01,2013-11-20 05:00:00,
2013-11-19 23:01:00,31.5,25.8,30.19,SSE,159,1.0,8.0,79,0.00,,---,0.00,VWS V14.01,2013-11-20 05:01:00,
2013-11-19 23:02:00,31.4,25.6,30.19,ESE,113,2.0,3.0,79,0.00,,---,0.00,VWS V14.01,2013-11-20 05:02:00,
2013-11-19 23:03:00,31.5,25.8,30.19,SE,138,3.0,3.0,79,0.00,,---,0.00,VWS V14.01,2013-11-20 05:03:00,
2013-11-19 23:08:00,31.6,25.5,30.19,SE,132,2.0,5.0,78,0.00,,---,0.00,VWS V14.01,2013-11-20 05:08:00,
2013-11-19 23:13:00,31.7,25.6,30.19,ESE,108,3.0,7.0,78,0.00,,---,0.00,VWS V14.01,2013-11-20 05:13:00,
2013-11-19 23:18:00,31.8,25.7,30.19,ESE,119,2.0,7.0,78,0.00,,---,0.00,VWS V14.01,2013-11-20 05:18:00,
2013-11-19 23:23:00,31.8,25.4,30.19,ESE,115,3.0,7.0,77,0.00,,---,0.00,VWS V14.01,2013-11-20 05:23:00,
2013-11-19 23:29:00,31.8,25.4,30.19,East,94,3.0,7.0,77,0.00,,---,0.00,VWS V14.01,2013-11-20 05:29:00,
2013-11-19 23:34:00,32.0,25.6,30.18,ESE,110,3.0,5.0,77,0.00,,---,0.00,VWS V14.01,2013-11-20 05:34:00,
2013-11-19 23:39:00,32.0,25.6,30.18,ESE,123,3.0,6.0,77,0.00,,---,0.00,VWS V14.01,2013-11-20 05:39:00,
2013-11-19 23:44:00,32.0,25.6,30.18,SE,145,2.0,6.0,77,0.00,,---,0.00,VWS V14.01,2013-11-20 05:44:00,
2013-11-19 23:49:00,32.1,25.4,30.18,SE,142,2.0,6.0,76,0.00,,---,0.00,VWS V14.01,2013-11-20 05:49:00,
2013-11-19 23:54:00,32.1,25.4,30.18,SE,130,2.0,6.0,76,0.00,,---,0.00,VWS V14.01,2013-11-20 05:54:00,
2013-11-19 23:59:00,32.1,25.1,30.18,SE,129,2.0,9.0,75,0.00,,---,0.00,VWS V14.01,2013-11-20 05:59:00,